sensor_id;sensor_type;location;lat;lon;timestamp;P1;durP1;ratioP1;P2;durP2;ratioP2
24677;SDS011;12800;53.094;8.778;2023-08-06T00:00:06;2.88;;;1.95;;
24677;SDS011;12800;53.094;8.778;2023-08-06T00:02:33;2.22;;;1.90;;
24677;SDS011;12800;53.094;8.778;2023-08-06T00:04:59;3.20;;;2.17;;
24677;SDS011;12800;53.094;8.778;2023-08-06T00:07:24;2.08;;;1.88;;
24677;SDS011;12800;53.094;8.778;2023-08-06T00:09:50;1.85;;;1.65;;
24677;SDS011;12800;53.094;8.778;2023-08-06T00:12:15;2.33;;;2.05;;
24677;SDS011;12800;53.094;8.778;2023-08-06T00:14:41;2.85;;;2.40;;
24677;SDS011;12800;53.094;8.778;2023-08-06T00:17:07;11.75;;;9.30;;
24677;SDS011;12800;53.094;8.778;2023-08-06T00:19:33;4.53;;;2.45;;
24677;SDS011;12800;53.094;8.778;2023-08-06T00:21:58;2.50;;;2.08;;
24677;SDS011;12800;53.094;8.778;2023-08-06T00:24:24;6.07;;;2.13;;
24677;SDS011;12800;53.094;8.778;2023-08-06T00:26:50;2.38;;;2.15;;
24677;SDS011;12800;53.094;8.778;2023-08-06T00:29:15;2.90;;;2.13;;
24677;SDS011;12800;53.094;8.778;2023-08-06T00:31:41;2.88;;;2.45;;
24677;SDS011;12800;53.094;8.778;2023-08-06T00:34:06;2.42;;;1.92;;
24677;SDS011;12800;53.094;8.778;2023-08-06T00:36:32;2.83;;;2.10;;
24677;SDS011;12800;53.094;8.778;2023-08-06T00:38:58;2.30;;;2.00;;
24677;SDS011;12800;53.094;8.778;2023-08-06T00:41:23;4.88;;;2.10;;
24677;SDS011;12800;53.094;8.778;2023-08-06T00:43:49;2.97;;;1.90;;
24677;SDS011;12800;53.094;8.778;2023-08-06T00:46:14;2.03;;;1.70;;
24677;SDS011;12800;53.094;8.778;2023-08-06T00:48:41;3.85;;;1.77;;
24677;SDS011;12800;53.094;8.778;2023-08-06T00:51:08;2.35;;;2.15;;
24677;SDS011;12800;53.094;8.778;2023-08-06T00:53:37;2.83;;;2.40;;
24677;SDS011;12800;53.094;8.778;2023-08-06T00:56:04;4.25;;;2.45;;
24677;SDS011;12800;53.094;8.778;2023-08-06T00:58:31;2.60;;;2.33;;
24677;SDS011;12800;53.094;8.778;2023-08-06T01:00:57;3.28;;;2.22;;
24677;SDS011;12800;53.094;8.778;2023-08-06T01:03:23;4.63;;;2.90;;
24677;SDS011;12800;53.094;8.778;2023-08-06T01:05:48;2.80;;;2.50;;
24677;SDS011;12800;53.094;8.778;2023-08-06T01:11:22;3.72;;;2.67;;
24677;SDS011;12800;53.094;8.778;2023-08-06T01:13:58;4.05;;;3.42;;
24677;SDS011;12800;53.094;8.778;2023-08-06T01:16:30;5.10;;;3.05;;
24677;SDS011;12800;53.094;8.778;2023-08-06T01:18:58;5.07;;;3.45;;
24677;SDS011;12800;53.094;8.778;2023-08-06T01:21:24;5.55;;;3.15;;
24677;SDS011;12800;53.094;8.778;2023-08-06T01:23:49;5.20;;;3.17;;
24677;SDS011;12800;53.094;8.778;2023-08-06T01:26:33;4.47;;;3.53;;
24677;SDS011;12800;53.094;8.778;2023-08-06T01:31:53;5.57;;;3.30;;
24677;SDS011;12800;53.094;8.778;2023-08-06T01:34:22;5.30;;;3.28;;
24677;SDS011;12800;53.094;8.778;2023-08-06T01:36:50;4.68;;;3.28;;
24677;SDS011;12800;53.094;8.778;2023-08-06T01:39:17;4.90;;;3.58;;
24677;SDS011;12800;53.094;8.778;2023-08-06T01:41:45;5.32;;;3.80;;
24677;SDS011;12800;53.094;8.778;2023-08-06T01:44:15;4.68;;;3.17;;
24677;SDS011;12800;53.094;8.778;2023-08-06T01:46:41;4.68;;;3.45;;
24677;SDS011;12800;53.094;8.778;2023-08-06T01:49:06;4.00;;;3.58;;
24677;SDS011;12800;53.094;8.778;2023-08-06T01:51:32;4.07;;;3.25;;
24677;SDS011;12800;53.094;8.778;2023-08-06T01:53:58;4.03;;;3.10;;
24677;SDS011;12800;53.094;8.778;2023-08-06T01:56:23;4.60;;;3.08;;
24677;SDS011;12800;53.094;8.778;2023-08-06T01:58:49;3.85;;;3.25;;
24677;SDS011;12800;53.094;8.778;2023-08-06T02:01:15;3.20;;;2.90;;
24677;SDS011;12800;53.094;8.778;2023-08-06T02:03:40;3.33;;;3.03;;
24677;SDS011;12800;53.094;8.778;2023-08-06T02:06:06;4.80;;;3.20;;
24677;SDS011;12800;53.094;8.778;2023-08-06T02:08:32;3.08;;;2.70;;
24677;SDS011;12800;53.094;8.778;2023-08-06T02:10:58;4.95;;;2.72;;
24677;SDS011;12800;53.094;8.778;2023-08-06T02:13:24;3.08;;;2.78;;
24677;SDS011;12800;53.094;8.778;2023-08-06T02:15:50;3.63;;;2.50;;
24677;SDS011;12800;53.094;8.778;2023-08-06T02:18:15;4.20;;;3.00;;
24677;SDS011;12800;53.094;8.778;2023-08-06T02:20:42;3.55;;;2.80;;
24677;SDS011;12800;53.094;8.778;2023-08-06T02:23:07;4.28;;;2.70;;
24677;SDS011;12800;53.094;8.778;2023-08-06T02:25:33;4.45;;;3.28;;
24677;SDS011;12800;53.094;8.778;2023-08-06T02:27:59;4.32;;;3.08;;
24677;SDS011;12800;53.094;8.778;2023-08-06T02:30:25;4.05;;;3.17;;
24677;SDS011;12800;53.094;8.778;2023-08-06T02:32:51;3.22;;;2.92;;
24677;SDS011;12800;53.094;8.778;2023-08-06T02:35:16;3.90;;;3.15;;
24677;SDS011;12800;53.094;8.778;2023-08-06T02:37:42;2.92;;;2.70;;
24677;SDS011;12800;53.094;8.778;2023-08-06T02:40:07;4.57;;;3.10;;
24677;SDS011;12800;53.094;8.778;2023-08-06T02:42:33;3.28;;;2.80;;
24677;SDS011;12800;53.094;8.778;2023-08-06T02:44:59;4.22;;;3.38;;
24677;SDS011;12800;53.094;8.778;2023-08-06T02:47:24;4.13;;;3.10;;
24677;SDS011;12800;53.094;8.778;2023-08-06T02:49:50;4.60;;;3.28;;
24677;SDS011;12800;53.094;8.778;2023-08-06T02:52:16;3.85;;;3.03;;
24677;SDS011;12800;53.094;8.778;2023-08-06T02:54:42;4.70;;;2.95;;
24677;SDS011;12800;53.094;8.778;2023-08-06T02:57:08;3.47;;;2.88;;
24677;SDS011;12800;53.094;8.778;2023-08-06T02:59:34;4.05;;;3.40;;
24677;SDS011;12800;53.094;8.778;2023-08-06T03:01:59;3.42;;;2.80;;
24677;SDS011;12800;53.094;8.778;2023-08-06T03:04:25;4.88;;;3.35;;
24677;SDS011;12800;53.094;8.778;2023-08-06T03:06:51;4.45;;;3.00;;
24677;SDS011;12800;53.094;8.778;2023-08-06T03:09:17;3.67;;;2.83;;
24677;SDS011;12800;53.094;8.778;2023-08-06T03:11:42;5.18;;;3.13;;
24677;SDS011;12800;53.094;8.778;2023-08-06T03:14:08;6.05;;;3.03;;
24677;SDS011;12800;53.094;8.778;2023-08-06T03:16:34;2.85;;;2.60;;
24677;SDS011;12800;53.094;8.778;2023-08-06T03:19:00;3.63;;;3.28;;
24677;SDS011;12800;53.094;8.778;2023-08-06T03:21:26;4.15;;;2.75;;
24677;SDS011;12800;53.094;8.778;2023-08-06T03:23:51;5.10;;;3.65;;
24677;SDS011;12800;53.094;8.778;2023-08-06T03:26:17;4.32;;;3.35;;
24677;SDS011;12800;53.094;8.778;2023-08-06T03:28:42;3.80;;;3.30;;
24677;SDS011;12800;53.094;8.778;2023-08-06T03:31:08;4.03;;;3.30;;
24677;SDS011;12800;53.094;8.778;2023-08-06T03:33:34;4.55;;;3.28;;
24677;SDS011;12800;53.094;8.778;2023-08-06T03:36:00;3.15;;;2.85;;
24677;SDS011;12800;53.094;8.778;2023-08-06T03:38:25;3.90;;;3.50;;
24677;SDS011;12800;53.094;8.778;2023-08-06T03:40:52;6.20;;;4.15;;
24677;SDS011;12800;53.094;8.778;2023-08-06T03:43:18;24.90;;;18.65;;
24677;SDS011;12800;53.094;8.778;2023-08-06T03:45:44;13.38;;;10.43;;
24677;SDS011;12800;53.094;8.778;2023-08-06T03:48:09;4.65;;;4.18;;
24677;SDS011;12800;53.094;8.778;2023-08-06T03:50:35;4.05;;;3.65;;
24677;SDS011;12800;53.094;8.778;2023-08-06T03:53:01;5.72;;;3.70;;
24677;SDS011;12800;53.094;8.778;2023-08-06T03:55:27;4.22;;;3.83;;
24677;SDS011;12800;53.094;8.778;2023-08-06T03:57:53;5.22;;;3.90;;
24677;SDS011;12800;53.094;8.778;2023-08-06T04:00:19;4.30;;;3.88;;
24677;SDS011;12800;53.094;8.778;2023-08-06T04:02:44;4.65;;;4.22;;
24677;SDS011;12800;53.094;8.778;2023-08-06T04:05:10;9.88;;;4.50;;
24677;SDS011;12800;53.094;8.778;2023-08-06T04:07:36;5.45;;;4.30;;
24677;SDS011;12800;53.094;8.778;2023-08-06T04:10:02;4.68;;;4.18;;
24677;SDS011;12800;53.094;8.778;2023-08-06T04:12:29;4.30;;;3.88;;
24677;SDS011;12800;53.094;8.778;2023-08-06T04:14:56;4.57;;;3.55;;
24677;SDS011;12800;53.094;8.778;2023-08-06T04:17:24;4.88;;;3.92;;
24677;SDS011;12800;53.094;8.778;2023-08-06T04:19:50;5.68;;;3.85;;
24677;SDS011;12800;53.094;8.778;2023-08-06T04:22:18;5.88;;;4.07;;
24677;SDS011;12800;53.094;8.778;2023-08-06T04:24:44;5.85;;;4.70;;
24677;SDS011;12800;53.094;8.778;2023-08-06T04:27:10;6.28;;;4.18;;
24677;SDS011;12800;53.094;8.778;2023-08-06T04:29:36;5.57;;;4.95;;
24677;SDS011;12800;53.094;8.778;2023-08-06T04:32:03;6.03;;;4.55;;
24677;SDS011;12800;53.094;8.778;2023-08-06T04:34:33;6.28;;;5.28;;
24677;SDS011;12800;53.094;8.778;2023-08-06T04:36:59;6.00;;;5.28;;
24677;SDS011;12800;53.094;8.778;2023-08-06T04:39:25;6.18;;;5.57;;
24677;SDS011;12800;53.094;8.778;2023-08-06T04:41:51;5.53;;;5.03;;
24677;SDS011;12800;53.094;8.778;2023-08-06T04:44:16;5.43;;;4.93;;
24677;SDS011;12800;53.094;8.778;2023-08-06T04:46:42;8.63;;;5.68;;
24677;SDS011;12800;53.094;8.778;2023-08-06T04:49:08;8.00;;;5.10;;
24677;SDS011;12800;53.094;8.778;2023-08-06T04:51:33;8.00;;;5.45;;
24677;SDS011;12800;53.094;8.778;2023-08-06T04:53:59;7.15;;;6.13;;
24677;SDS011;12800;53.094;8.778;2023-08-06T04:56:24;20.08;;;15.32;;
24677;SDS011;12800;53.094;8.778;2023-08-06T04:58:50;12.18;;;9.32;;
24677;SDS011;12800;53.094;8.778;2023-08-06T05:01:16;6.65;;;5.95;;
24677;SDS011;12800;53.094;8.778;2023-08-06T05:03:41;6.78;;;5.63;;
24677;SDS011;12800;53.094;8.778;2023-08-06T05:06:07;8.00;;;7.10;;
24677;SDS011;12800;53.094;8.778;2023-08-06T05:08:33;12.10;;;9.38;;
24677;SDS011;12800;53.094;8.778;2023-08-06T05:10:58;19.20;;;15.25;;
24677;SDS011;12800;53.094;8.778;2023-08-06T05:13:24;8.00;;;7.18;;
24677;SDS011;12800;53.094;8.778;2023-08-06T05:15:50;6.80;;;5.72;;
24677;SDS011;12800;53.094;8.778;2023-08-06T05:18:18;6.40;;;5.80;;
24677;SDS011;12800;53.094;8.778;2023-08-06T05:20:44;8.88;;;5.47;;
24677;SDS011;12800;53.094;8.778;2023-08-06T05:23:10;9.32;;;7.32;;
24677;SDS011;12800;53.094;8.778;2023-08-06T05:25:35;15.52;;;10.88;;
24677;SDS011;12800;53.094;8.778;2023-08-06T05:28:02;11.20;;;9.57;;
24677;SDS011;12800;53.094;8.778;2023-08-06T05:30:28;8.68;;;6.07;;
24677;SDS011;12800;53.094;8.778;2023-08-06T05:32:53;6.50;;;5.80;;
24677;SDS011;12800;53.094;8.778;2023-08-06T05:35:20;6.78;;;5.57;;
24677;SDS011;12800;53.094;8.778;2023-08-06T05:37:47;6.47;;;5.13;;
24677;SDS011;12800;53.094;8.778;2023-08-06T05:40:12;6.50;;;5.70;;
24677;SDS011;12800;53.094;8.778;2023-08-06T05:42:39;6.20;;;5.47;;
24677;SDS011;12800;53.094;8.778;2023-08-06T05:45:05;7.18;;;5.15;;
24677;SDS011;12800;53.094;8.778;2023-08-06T05:47:31;6.10;;;5.05;;
24677;SDS011;12800;53.094;8.778;2023-08-06T05:49:56;6.15;;;5.32;;
24677;SDS011;12800;53.094;8.778;2023-08-06T05:52:22;5.80;;;5.22;;
24677;SDS011;12800;53.094;8.778;2023-08-06T05:54:47;6.28;;;5.68;;
24677;SDS011;12800;53.094;8.778;2023-08-06T05:57:13;5.90;;;5.25;;
24677;SDS011;12800;53.094;8.778;2023-08-06T05:59:40;8.02;;;5.70;;
24677;SDS011;12800;53.094;8.778;2023-08-06T06:02:06;7.28;;;5.00;;
24677;SDS011;12800;53.094;8.778;2023-08-06T06:04:31;5.35;;;4.82;;
24677;SDS011;12800;53.094;8.778;2023-08-06T06:06:57;8.77;;;4.80;;
24677;SDS011;12800;53.094;8.778;2023-08-06T06:09:22;5.78;;;4.80;;
24677;SDS011;12800;53.094;8.778;2023-08-06T06:11:48;4.68;;;4.07;;
24677;SDS011;12800;53.094;8.778;2023-08-06T06:14:15;5.20;;;3.90;;
24677;SDS011;12800;53.094;8.778;2023-08-06T06:16:41;5.22;;;4.13;;
24677;SDS011;12800;53.094;8.778;2023-08-06T06:19:07;6.25;;;4.80;;
24677;SDS011;12800;53.094;8.778;2023-08-06T06:21:32;5.25;;;4.43;;
24677;SDS011;12800;53.094;8.778;2023-08-06T06:23:58;5.20;;;4.10;;
24677;SDS011;12800;53.094;8.778;2023-08-06T06:26:24;4.90;;;4.40;;
24677;SDS011;12800;53.094;8.778;2023-08-06T06:28:49;4.72;;;4.22;;
24677;SDS011;12800;53.094;8.778;2023-08-06T06:31:15;4.47;;;3.88;;
24677;SDS011;12800;53.094;8.778;2023-08-06T06:33:41;4.72;;;4.22;;
24677;SDS011;12800;53.094;8.778;2023-08-06T06:36:06;5.00;;;4.47;;
24677;SDS011;12800;53.094;8.778;2023-08-06T06:38:32;25.80;;;20.30;;
24677;SDS011;12800;53.094;8.778;2023-08-06T06:40:58;12.43;;;8.63;;
24677;SDS011;12800;53.094;8.778;2023-08-06T06:43:24;10.63;;;6.53;;
24677;SDS011;12800;53.094;8.778;2023-08-06T06:45:55;8.15;;;7.00;;
24677;SDS011;12800;53.094;8.778;2023-08-06T06:48:23;4.28;;;3.88;;
24677;SDS011;12800;53.094;8.778;2023-08-06T06:50:49;4.55;;;4.15;;
24677;SDS011;12800;53.094;8.778;2023-08-06T06:53:14;5.60;;;3.83;;
24677;SDS011;12800;53.094;8.778;2023-08-06T06:55:40;4.57;;;3.53;;
24677;SDS011;12800;53.094;8.778;2023-08-06T06:58:05;5.15;;;3.80;;
24677;SDS011;12800;53.094;8.778;2023-08-06T07:00:31;5.88;;;4.22;;
24677;SDS011;12800;53.094;8.778;2023-08-06T07:02:57;4.55;;;4.15;;
24677;SDS011;12800;53.094;8.778;2023-08-06T07:05:22;4.00;;;3.60;;
24677;SDS011;12800;53.094;8.778;2023-08-06T07:07:48;3.60;;;3.22;;
24677;SDS011;12800;53.094;8.778;2023-08-06T07:10:13;3.90;;;3.60;;
24677;SDS011;12800;53.094;8.778;2023-08-06T07:12:39;5.28;;;4.10;;
24677;SDS011;12800;53.094;8.778;2023-08-06T07:15:08;6.90;;;3.80;;
24677;SDS011;12800;53.094;8.778;2023-08-06T07:17:34;4.28;;;3.88;;
24677;SDS011;12800;53.094;8.778;2023-08-06T07:19:59;5.65;;;4.10;;
24677;SDS011;12800;53.094;8.778;2023-08-06T07:22:25;5.63;;;3.63;;
24677;SDS011;12800;53.094;8.778;2023-08-06T07:24:51;4.68;;;4.03;;
24677;SDS011;12800;53.094;8.778;2023-08-06T07:27:17;4.18;;;3.67;;
24677;SDS011;12800;53.094;8.778;2023-08-06T07:29:42;4.75;;;4.22;;
24677;SDS011;12800;53.094;8.778;2023-08-06T07:32:08;3.97;;;3.58;;
24677;SDS011;12800;53.094;8.778;2023-08-06T07:34:33;4.32;;;3.67;;
24677;SDS011;12800;53.094;8.778;2023-08-06T07:36:59;4.03;;;3.60;;
24677;SDS011;12800;53.094;8.778;2023-08-06T07:39:25;4.93;;;3.63;;
24677;SDS011;12800;53.094;8.778;2023-08-06T07:41:50;4.60;;;3.75;;
24677;SDS011;12800;53.094;8.778;2023-08-06T07:44:16;12.73;;;9.93;;
24677;SDS011;12800;53.094;8.778;2023-08-06T07:46:42;4.05;;;3.65;;
24677;SDS011;12800;53.094;8.778;2023-08-06T07:49:08;5.95;;;5.30;;
24677;SDS011;12800;53.094;8.778;2023-08-06T07:51:36;4.97;;;4.38;;
24677;SDS011;12800;53.094;8.778;2023-08-06T07:54:01;6.85;;;5.65;;
24677;SDS011;12800;53.094;8.778;2023-08-06T07:56:28;6.68;;;3.97;;
24677;SDS011;12800;53.094;8.778;2023-08-06T07:58:54;4.60;;;4.13;;
24677;SDS011;12800;53.094;8.778;2023-08-06T08:01:19;6.32;;;4.43;;
24677;SDS011;12800;53.094;8.778;2023-08-06T08:03:45;4.50;;;3.80;;
24677;SDS011;12800;53.094;8.778;2023-08-06T08:06:10;4.68;;;4.05;;
24677;SDS011;12800;53.094;8.778;2023-08-06T08:08:36;4.22;;;3.83;;
24677;SDS011;12800;53.094;8.778;2023-08-06T08:11:03;3.88;;;3.28;;
24677;SDS011;12800;53.094;8.778;2023-08-06T08:13:30;5.47;;;3.88;;
24677;SDS011;12800;53.094;8.778;2023-08-06T08:15:59;6.55;;;4.40;;
24677;SDS011;12800;53.094;8.778;2023-08-06T08:18:25;5.55;;;4.95;;
24677;SDS011;12800;53.094;8.778;2023-08-06T08:20:51;22.60;;;13.20;;
24677;SDS011;12800;53.094;8.778;2023-08-06T08:23:17;23.42;;;17.13;;
24677;SDS011;12800;53.094;8.778;2023-08-06T08:25:42;10.15;;;7.47;;
24677;SDS011;12800;53.094;8.778;2023-08-06T08:28:08;8.90;;;5.93;;
24677;SDS011;12800;53.094;8.778;2023-08-06T08:30:34;7.18;;;5.60;;
24677;SDS011;12800;53.094;8.778;2023-08-06T08:32:59;7.82;;;5.03;;
24677;SDS011;12800;53.094;8.778;2023-08-06T08:35:25;6.47;;;5.43;;
24677;SDS011;12800;53.094;8.778;2023-08-06T08:38:02;9.40;;;5.70;;
24677;SDS011;12800;53.094;8.778;2023-08-06T08:40:30;8.73;;;6.30;;
24677;SDS011;12800;53.094;8.778;2023-08-06T08:42:58;6.30;;;5.53;;
24677;SDS011;12800;53.094;8.778;2023-08-06T08:45:24;7.68;;;5.95;;
24677;SDS011;12800;53.094;8.778;2023-08-06T08:47:53;6.68;;;5.45;;
24677;SDS011;12800;53.094;8.778;2023-08-06T08:50:19;9.20;;;5.88;;
24677;SDS011;12800;53.094;8.778;2023-08-06T08:52:46;9.80;;;6.65;;
24677;SDS011;12800;53.094;8.778;2023-08-06T08:55:14;7.63;;;5.78;;
24677;SDS011;12800;53.094;8.778;2023-08-06T08:57:40;8.45;;;5.15;;
24677;SDS011;12800;53.094;8.778;2023-08-06T09:00:06;7.78;;;5.18;;
24677;SDS011;12800;53.094;8.778;2023-08-06T09:02:32;10.75;;;7.80;;
24677;SDS011;12800;53.094;8.778;2023-08-06T09:04:59;10.77;;;6.43;;
24677;SDS011;12800;53.094;8.778;2023-08-06T09:07:28;10.13;;;5.32;;
24677;SDS011;12800;53.094;8.778;2023-08-06T09:09:58;6.50;;;5.10;;
24677;SDS011;12800;53.094;8.778;2023-08-06T09:12:28;6.30;;;4.22;;
24677;SDS011;12800;53.094;8.778;2023-08-06T09:14:54;6.72;;;4.70;;
24677;SDS011;12800;53.094;8.778;2023-08-06T09:17:20;6.35;;;4.28;;
24677;SDS011;12800;53.094;8.778;2023-08-06T09:19:46;4.03;;;3.42;;
24677;SDS011;12800;53.094;8.778;2023-08-06T09:22:13;4.00;;;3.53;;
24677;SDS011;12800;53.094;8.778;2023-08-06T09:24:42;4.43;;;3.65;;
24677;SDS011;12800;53.094;8.778;2023-08-06T09:27:11;5.63;;;3.95;;
24677;SDS011;12800;53.094;8.778;2023-08-06T09:29:41;3.75;;;3.30;;
24677;SDS011;12800;53.094;8.778;2023-08-06T09:32:08;4.35;;;3.90;;
24677;SDS011;12800;53.094;8.778;2023-08-06T09:34:33;4.57;;;3.70;;
24677;SDS011;12800;53.094;8.778;2023-08-06T09:36:59;3.00;;;2.70;;
24677;SDS011;12800;53.094;8.778;2023-08-06T09:39:28;3.15;;;2.50;;
24677;SDS011;12800;53.094;8.778;2023-08-06T09:41:55;3.88;;;2.47;;
24677;SDS011;12800;53.094;8.778;2023-08-06T09:44:25;3.20;;;2.55;;
24677;SDS011;12800;53.094;8.778;2023-08-06T09:46:56;2.97;;;2.67;;
24677;SDS011;12800;53.094;8.778;2023-08-06T09:49:27;2.35;;;2.10;;
24677;SDS011;12800;53.094;8.778;2023-08-06T09:51:54;4.88;;;4.03;;
24677;SDS011;12800;53.094;8.778;2023-08-06T09:54:23;2.88;;;2.63;;
24677;SDS011;12800;53.094;8.778;2023-08-06T09:56:51;2.40;;;2.20;;
24677;SDS011;12800;53.094;8.778;2023-08-06T09:59:20;2.30;;;2.10;;
24677;SDS011;12800;53.094;8.778;2023-08-06T10:01:46;2.88;;;2.35;;
24677;SDS011;12800;53.094;8.778;2023-08-06T10:04:12;3.20;;;2.83;;
24677;SDS011;12800;53.094;8.778;2023-08-06T10:06:41;3.10;;;2.40;;
24677;SDS011;12800;53.094;8.778;2023-08-06T10:09:08;2.13;;;1.92;;
24677;SDS011;12800;53.094;8.778;2023-08-06T10:11:34;1.95;;;1.77;;
24677;SDS011;12800;53.094;8.778;2023-08-06T10:14:24;2.03;;;1.73;;
24677;SDS011;12800;53.094;8.778;2023-08-06T10:16:52;2.42;;;1.88;;
24677;SDS011;12800;53.094;8.778;2023-08-06T10:19:19;2.22;;;1.83;;
24677;SDS011;12800;53.094;8.778;2023-08-06T10:24:46;2.30;;;2.08;;
24677;SDS011;12800;53.094;8.778;2023-08-06T10:27:19;3.35;;;1.67;;
24677;SDS011;12800;53.094;8.778;2023-08-06T10:32:50;2.92;;;1.65;;
24677;SDS011;12800;53.094;8.778;2023-08-06T10:38:20;1.70;;;1.60;;
24677;SDS011;12800;53.094;8.778;2023-08-06T10:41:07;3.35;;;1.60;;
24677;SDS011;12800;53.094;8.778;2023-08-06T10:43:33;2.58;;;1.70;;
24677;SDS011;12800;53.094;8.778;2023-08-06T10:46:09;3.13;;;1.65;;
24677;SDS011;12800;53.094;8.778;2023-08-06T10:48:36;5.43;;;4.30;;
24677;SDS011;12800;53.094;8.778;2023-08-06T10:51:06;2.33;;;1.70;;
24677;SDS011;12800;53.094;8.778;2023-08-06T10:53:33;1.88;;;1.65;;
24677;SDS011;12800;53.094;8.778;2023-08-06T10:55:59;4.47;;;1.60;;
24677;SDS011;12800;53.094;8.778;2023-08-06T10:58:25;2.10;;;1.85;;
24677;SDS011;12800;53.094;8.778;2023-08-06T11:00:51;2.13;;;1.95;;
24677;SDS011;12800;53.094;8.778;2023-08-06T11:03:17;3.20;;;1.77;;
24677;SDS011;12800;53.094;8.778;2023-08-06T11:05:48;2.20;;;1.50;;
24677;SDS011;12800;53.094;8.778;2023-08-06T11:08:22;1.70;;;1.60;;
24677;SDS011;12800;53.094;8.778;2023-08-06T11:10:50;5.00;;;1.80;;
24677;SDS011;12800;53.094;8.778;2023-08-06T11:13:18;2.22;;;2.00;;
24677;SDS011;12800;53.094;8.778;2023-08-06T11:15:45;6.97;;;2.03;;
24677;SDS011;12800;53.094;8.778;2023-08-06T11:18:11;1.35;;;1.25;;
24677;SDS011;12800;53.094;8.778;2023-08-06T11:20:37;1.95;;;1.75;;
24677;SDS011;12800;53.094;8.778;2023-08-06T11:23:04;1.95;;;1.75;;
24677;SDS011;12800;53.094;8.778;2023-08-06T11:25:30;1.50;;;1.40;;
24677;SDS011;12800;53.094;8.778;2023-08-06T11:27:56;1.42;;;1.33;;
24677;SDS011;12800;53.094;8.778;2023-08-06T11:30:22;1.25;;;1.00;;
24677;SDS011;12800;53.094;8.778;2023-08-06T11:32:47;1.73;;;1.20;;
24677;SDS011;12800;53.094;8.778;2023-08-06T11:35:14;1.35;;;1.25;;
24677;SDS011;12800;53.094;8.778;2023-08-06T11:37:44;1.30;;;1.20;;
24677;SDS011;12800;53.094;8.778;2023-08-06T11:40:11;1.60;;;1.40;;
24677;SDS011;12800;53.094;8.778;2023-08-06T11:42:37;1.20;;;1.00;;
24677;SDS011;12800;53.094;8.778;2023-08-06T11:45:03;1.85;;;1.40;;
24677;SDS011;12800;53.094;8.778;2023-08-06T11:47:29;2.38;;;1.20;;
24677;SDS011;12800;53.094;8.778;2023-08-06T11:49:55;1.40;;;1.30;;
24677;SDS011;12800;53.094;8.778;2023-08-06T11:52:24;11.30;;;9.68;;
24677;SDS011;12800;53.094;8.778;2023-08-06T11:55:04;19.02;;;14.10;;
24677;SDS011;12800;53.094;8.778;2023-08-06T11:57:37;1.77;;;1.48;;
24677;SDS011;12800;53.094;8.778;2023-08-06T12:00:11;2.42;;;1.40;;
24677;SDS011;12800;53.094;8.778;2023-08-06T12:02:42;3.47;;;2.95;;
24677;SDS011;12800;53.094;8.778;2023-08-06T12:05:12;2.50;;;1.17;;
24677;SDS011;12800;53.094;8.778;2023-08-06T12:07:43;1.50;;;1.40;;
24677;SDS011;12800;53.094;8.778;2023-08-06T12:10:10;1.25;;;1.15;;
24677;SDS011;12800;53.094;8.778;2023-08-06T12:12:37;5.65;;;4.72;;
24677;SDS011;12800;53.094;8.778;2023-08-06T12:15:03;2.67;;;1.60;;
24677;SDS011;12800;53.094;8.778;2023-08-06T12:17:31;1.95;;;1.30;;
24677;SDS011;12800;53.094;8.778;2023-08-06T12:19:57;2.50;;;1.83;;
24677;SDS011;12800;53.094;8.778;2023-08-06T12:22:22;1.75;;;0.95;;
24677;SDS011;12800;53.094;8.778;2023-08-06T12:24:48;2.15;;;1.60;;
24677;SDS011;12800;53.094;8.778;2023-08-06T12:27:14;3.80;;;1.17;;
24677;SDS011;12800;53.094;8.778;2023-08-06T12:29:44;1.35;;;1.23;;
24677;SDS011;12800;53.094;8.778;2023-08-06T12:32:12;1.50;;;1.40;;
24677;SDS011;12800;53.094;8.778;2023-08-06T12:34:38;2.30;;;1.45;;
24677;SDS011;12800;53.094;8.778;2023-08-06T12:37:04;2.70;;;1.30;;
24677;SDS011;12800;53.094;8.778;2023-08-06T12:39:30;1.38;;;1.27;;
24677;SDS011;12800;53.094;8.778;2023-08-06T12:41:57;1.40;;;1.30;;
24677;SDS011;12800;53.094;8.778;2023-08-06T12:44:23;1.17;;;1.05;;
24677;SDS011;12800;53.094;8.778;2023-08-06T12:46:50;3.03;;;1.38;;
24677;SDS011;12800;53.094;8.778;2023-08-06T12:49:16;3.22;;;1.40;;
24677;SDS011;12800;53.094;8.778;2023-08-06T12:51:42;2.03;;;1.80;;
24677;SDS011;12800;53.094;8.778;2023-08-06T12:54:08;1.70;;;1.60;;
24677;SDS011;12800;53.094;8.778;2023-08-06T12:56:34;1.63;;;1.40;;
24677;SDS011;12800;53.094;8.778;2023-08-06T12:59:00;1.42;;;1.33;;
24677;SDS011;12800;53.094;8.778;2023-08-06T13:01:25;1.67;;;1.58;;
24677;SDS011;12800;53.094;8.778;2023-08-06T13:03:51;2.85;;;1.73;;
24677;SDS011;12800;53.094;8.778;2023-08-06T13:06:16;1.58;;;1.48;;
24677;SDS011;12800;53.094;8.778;2023-08-06T13:08:42;3.30;;;1.73;;
24677;SDS011;12800;53.094;8.778;2023-08-06T13:11:11;2.25;;;1.80;;
24677;SDS011;12800;53.094;8.778;2023-08-06T13:13:38;3.97;;;3.03;;
24677;SDS011;12800;53.094;8.778;2023-08-06T13:16:04;2.72;;;1.98;;
24677;SDS011;12800;53.094;8.778;2023-08-06T13:18:29;1.90;;;1.70;;
24677;SDS011;12800;53.094;8.778;2023-08-06T13:20:56;2.38;;;1.90;;
24677;SDS011;12800;53.094;8.778;2023-08-06T13:23:21;4.20;;;2.70;;
24677;SDS011;12800;53.094;8.778;2023-08-06T13:25:47;5.03;;;3.53;;
24677;SDS011;12800;53.094;8.778;2023-08-06T13:28:13;3.90;;;3.03;;
24677;SDS011;12800;53.094;8.778;2023-08-06T13:30:41;3.33;;;2.00;;
24677;SDS011;12800;53.094;8.778;2023-08-06T13:33:07;3.55;;;1.90;;
24677;SDS011;12800;53.094;8.778;2023-08-06T13:35:34;2.90;;;2.60;;
24677;SDS011;12800;53.094;8.778;2023-08-06T13:37:59;3.05;;;2.72;;
24677;SDS011;12800;53.094;8.778;2023-08-06T13:40:27;2.33;;;1.95;;
24677;SDS011;12800;53.094;8.778;2023-08-06T13:42:54;6.68;;;4.28;;
24677;SDS011;12800;53.094;8.778;2023-08-06T13:45:20;4.50;;;3.10;;
24677;SDS011;12800;53.094;8.778;2023-08-06T13:47:46;10.52;;;6.90;;
24677;SDS011;12800;53.094;8.778;2023-08-06T13:50:12;6.50;;;4.60;;
24677;SDS011;12800;53.094;8.778;2023-08-06T13:52:38;5.97;;;4.72;;
24677;SDS011;12800;53.094;8.778;2023-08-06T13:55:04;4.85;;;3.75;;
24677;SDS011;12800;53.094;8.778;2023-08-06T13:57:30;3.00;;;1.98;;
24677;SDS011;12800;53.094;8.778;2023-08-06T13:59:56;1.67;;;1.40;;
24677;SDS011;12800;53.094;8.778;2023-08-06T14:02:22;1.63;;;1.30;;
24677;SDS011;12800;53.094;8.778;2023-08-06T14:04:48;3.13;;;1.70;;
24677;SDS011;12800;53.094;8.778;2023-08-06T14:07:13;2.20;;;1.67;;
24677;SDS011;12800;53.094;8.778;2023-08-06T14:09:39;3.10;;;1.60;;
24677;SDS011;12800;53.094;8.778;2023-08-06T14:12:05;2.75;;;2.38;;
24677;SDS011;12800;53.094;8.778;2023-08-06T14:14:31;3.75;;;1.70;;
24677;SDS011;12800;53.094;8.778;2023-08-06T14:16:57;3.33;;;1.75;;
24677;SDS011;12800;53.094;8.778;2023-08-06T14:19:22;3.28;;;1.88;;
24677;SDS011;12800;53.094;8.778;2023-08-06T14:21:49;1.70;;;1.60;;
24677;SDS011;12800;53.094;8.778;2023-08-06T14:24:14;2.58;;;1.55;;
24677;SDS011;12800;53.094;8.778;2023-08-06T14:26:40;4.95;;;1.92;;
24677;SDS011;12800;53.094;8.778;2023-08-06T14:29:06;2.83;;;1.75;;
24677;SDS011;12800;53.094;8.778;2023-08-06T14:31:31;2.90;;;1.50;;
24677;SDS011;12800;53.094;8.778;2023-08-06T14:33:57;2.35;;;1.88;;
24677;SDS011;12800;53.094;8.778;2023-08-06T14:36:23;1.92;;;1.40;;
24677;SDS011;12800;53.094;8.778;2023-08-06T14:38:48;1.55;;;1.45;;
24677;SDS011;12800;53.094;8.778;2023-08-06T14:41:14;2.20;;;1.70;;
24677;SDS011;12800;53.094;8.778;2023-08-06T14:43:40;2.75;;;1.65;;
24677;SDS011;12800;53.094;8.778;2023-08-06T14:46:05;1.90;;;1.70;;
24677;SDS011;12800;53.094;8.778;2023-08-06T14:48:31;2.28;;;2.03;;
24677;SDS011;12800;53.094;8.778;2023-08-06T14:50:58;3.83;;;1.95;;
24677;SDS011;12800;53.094;8.778;2023-08-06T14:53:23;1.60;;;1.50;;
24677;SDS011;12800;53.094;8.778;2023-08-06T14:55:49;2.65;;;1.92;;